Time;durP1;ratioP1;P1;durP2;ratioP2;P2;SDS_P1;SDS_P2;PMS_P1;PMS_P2;Temp;Humidity;BMP_temperature;BMP_pressure;BME280_temperature;BME280_humidity;BME280_pressure;Samples;Min_cycle;Max_cycle;Signal;HPM_P1;HPM_P2
2023/12/29 00:01:48;;;;;;;;;2.25;2.25;;;;;9.80;96.12;100507.25;4957883;28;10816;-69
2023/12/29 00:04:14;;;;;;;;;5.00;2.00;;;;;9.80;95.84;100497.34;4953954;28;10017;-74
2023/12/29 00:06:41;;;;;;;;;3.00;3.00;;;;;9.82;95.31;100489.91;4949627;28;10029;-68
2023/12/29 00:09:22;;;;;;;;;2.25;2.00;;;;;9.71;95.60;100503.88;4945711;28;9907;-69
2023/12/29 00:11:50;;;;;;;;;4.00;4.00;;;;;9.73;96.15;100488.41;4951543;28;10127;-68
2023/12/29 00:14:17;;;;;;;;;4.25;3.00;;;;;9.74;95.74;100492.75;4948738;28;10007;-71
2023/12/29 00:16:44;;;;;;;;;6.00;2.00;;;;;9.81;95.67;100490.13;4934739;29;10046;-68
2023/12/29 00:19:12;;;;;;;;;6.00;1.00;;;;;9.90;95.49;100488.91;4932939;29;10761;-68
2023/12/29 00:21:39;;;;;;;;;5.50;5.50;;;;;9.91;94.83;100499.47;4950335;28;9898;-67
2023/12/29 00:24:05;;;;;;;;;3.75;3.75;;;;;9.86;95.44;100501.09;4945217;29;10169;-69
2023/12/29 00:26:32;;;;;;;;;3.00;3.00;;;;;9.85;95.52;100489.53;4946510;29;10030;-68
2023/12/29 00:28:59;;;;;;;;;4.50;1.75;;;;;9.91;95.24;100474.44;4951623;28;9927;-68
2023/12/29 00:31:25;;;;;;;;;4.00;2.75;;;;;9.85;95.45;100473.38;4950076;29;10070;-70
2023/12/29 00:33:53;;;;;;;;;3.00;3.00;;;;;9.80;95.42;100459.72;4950344;28;10073;-69
2023/12/29 00:36:20;;;;;;;;;6.75;3.00;;;;;9.75;95.93;100458.63;4946084;28;10103;-71
2023/12/29 00:38:47;;;;;;;;;4.00;4.00;;;;;9.80;96.06;100451.66;4951405;28;10112;-67
2023/12/29 00:41:13;;;;;;;;;3.00;3.00;;;;;9.66;96.39;100452.59;4950190;29;10473;-68
2023/12/29 00:43:40;;;;;;;;;8.25;6.25;;;;;9.63;96.99;100443.06;4933962;29;10038;-68
2023/12/29 00:46:08;;;;;;;;;6.50;5.00;;;;;9.69;97.56;100454.06;4948383;28;10852;-68
2023/12/29 00:48:35;;;;;;;;;4.50;3.75;;;;;9.68;97.42;100453.22;4950086;28;10362;-68
2023/12/29 00:51:03;;;;;;;;;5.00;3.00;;;;;9.70;97.42;100448.47;4955108;28;10191;-68
2023/12/29 00:53:31;;;;;;;;;6.25;3.00;;;;;9.71;96.75;100446.63;4954628;28;10245;-68
2023/12/29 00:55:59;;;;;;;;;2.50;2.00;;;;;9.70;97.21;100461.09;4954417;28;10730;-69
2023/12/29 00:58:26;;;;;;;;;2.50;2.50;;;;;9.66;96.75;100455.28;4954868;28;10173;-67
2023/12/29 01:00:53;;;;;;;;;5.00;5.00;;;;;9.63;96.92;100450.28;4953501;28;10027;-67
2023/12/29 01:03:20;;;;;;;;;5.25;3.00;;;;;9.64;96.73;100450.13;4953084;28;10131;-68
2023/12/29 01:05:50;;;;;;;;;11.75;6.75;;;;;9.62;96.80;100446.78;4950744;28;10055;-68
2023/12/29 01:08:16;;;;;;;;;3.75;3.75;;;;;9.64;96.42;100451.94;4954557;28;10224;-71
2023/12/29 01:10:43;;;;;;;;;5.50;3.25;;;;;9.61;96.72;100433.56;4954597;28;10224;-68
2023/12/29 01:13:10;;;;;;;;;8.50;7.00;;;;;9.66;96.60;100439.16;4953081;28;10157;-68
2023/12/29 01:15:37;;;;;;;;;4.50;4.50;;;;;9.64;96.15;100434.00;4949461;28;10332;-67
2023/12/29 01:18:04;;;;;;;;;3.75;3.75;;;;;9.63;95.89;100447.59;4948832;28;10267;-68
2023/12/29 01:20:31;;;;;;;;;4.00;2.00;;;;;9.62;95.87;100422.59;4947125;28;10193;-68
2023/12/29 01:22:58;;;;;;;;;5.25;2.00;;;;;9.61;95.75;100438.94;4952564;28;10123;-67
2023/12/29 01:25:24;;;;;;;;;9.00;5.75;;;;;9.68;95.99;100445.16;4959468;28;10093;-68
2023/12/29 01:27:51;;;;;;;;;4.00;2.75;;;;;9.75;95.74;100426.38;4955443;28;10213;-69
2023/12/29 01:30:18;;;;;;;;;4.75;2.00;;;;;9.75;95.60;100445.19;4952235;28;10298;-69
2023/12/29 01:32:44;;;;;;;;;6.50;4.75;;;;;9.77;95.21;100440.47;4954140;28;10048;-68
2023/12/29 01:35:11;;;;;;;;;4.50;3.25;;;;;9.82;94.83;100436.13;4954507;28;10140;-68
2023/12/29 01:37:37;;;;;;;;;5.50;5.50;;;;;9.73;95.42;100429.28;4954163;28;10173;-68
2023/12/29 01:40:05;;;;;;;;;5.25;4.50;;;;;9.75;95.01;100437.97;4952138;28;10285;-68
2023/12/29 01:42:32;;;;;;;;;1.00;1.00;;;;;9.79;95.37;100425.78;4946951;28;10140;-69
2023/12/29 01:44:58;;;;;;;;;2.25;2.25;;;;;9.85;95.20;100429.53;4944941;28;10019;-67
2023/12/29 01:47:25;;;;;;;;;1.50;1.50;;;;;9.89;94.91;100431.63;4957905;28;10057;-67
2023/12/29 01:49:52;;;;;;;;;3.00;3.00;;;;;9.87;94.66;100432.84;4969183;28;10083;-67
2023/12/29 01:52:20;;;;;;;;;3.25;2.25;;;;;9.90;94.70;100435.16;4951935;28;10767;-70
2023/12/29 01:54:50;;;;;;;;;3.00;3.00;;;;;9.91;93.98;100437.63;4936750;28;10139;-68
2023/12/29 01:57:17;;;;;;;;;7.00;5.50;;;;;9.85;94.55;100440.31;4953446;28;10027;-68
2023/12/29 01:59:45;;;;;;;;;5.75;4.75;;;;;9.77;94.75;100443.97;4942942;28;10133;-68
2023/12/29 02:02:12;;;;;;;;;6.50;3.25;;;;;9.75;94.44;100448.72;4944694;28;10069;-68
2023/12/29 02:04:40;;;;;;;;;3.50;3.50;;;;;9.81;94.40;100466.75;4936622;28;9954;-68
2023/12/29 02:07:07;;;;;;;;;5.00;5.00;;;;;9.79;95.02;100457.22;4957369;28;10099;-68
2023/12/29 02:09:34;;;;;;;;;6.50;3.00;;;;;9.70;95.86;100453.03;4953614;28;10050;-67
2023/12/29 02:12:02;;;;;;;;;5.75;5.50;;;;;9.73;95.97;100449.97;4952097;28;10110;-68
2023/12/29 02:14:28;;;;;;;;;6.50;5.00;;;;;9.79;95.84;100452.66;4951305;28;10219;-68
2023/12/29 02:17:07;;;;;;;;;6.25;6.00;;;;;9.82;95.64;100452.28;4960476;28;10880;-69
2023/12/29 02:19:41;;;;;;;;;6.00;6.00;;;;;9.87;95.07;100455.19;4952448;28;10232;-68
2023/12/29 02:22:10;;;;;;;;;5.25;3.00;;;;;9.83;95.46;100448.53;4951328;28;10238;-68
2023/12/29 02:24:38;;;;;;;;;3.75;3.75;;;;;9.75;95.45;100459.47;4951307;28;10074;-69
2023/12/29 02:27:12;;;;;;;;;6.00;4.00;;;;;9.76;95.64;100461.13;4950455;28;9874;-68
2023/12/29 02:29:43;;;;;;;;;6.00;5.00;;;;;9.73;95.77;100461.53;4953422;28;9963;-70
2023/12/29 02:32:16;;;;;;;;;8.00;3.75;;;;;9.75;95.68;100459.47;4951845;28;10208;-68
2023/12/29 02:34:47;;;;;;;;;3.00;3.00;;;;;9.79;95.39;100457.22;4952884;28;9941;-71
2023/12/29 02:37:14;;;;;;;;;3.75;2.50;;;;;9.79;95.40;100433.84;4946876;28;9943;-68
2023/12/29 02:39:41;;;;;;;;;3.00;3.00;;;;;9.76;95.61;100441.47;4950359;28;10050;-71
2023/12/29 02:42:09;;;;;;;;;3.00;3.00;;;;;9.80;95.57;100430.16;4950576;28;9976;-67
2023/12/29 02:44:35;;;;;;;;;5.00;2.75;;;;;9.81;95.28;100421.06;4967729;28;10010;-71
2023/12/29 02:47:03;;;;;;;;;4.50;2.75;;;;;9.83;95.07;100428.91;4952807;28;10040;-68
2023/12/29 02:49:30;;;;;;;;;9.00;2.75;;;;;9.82;95.12;100428.06;4945482;28;9922;-68
2023/12/29 02:51:57;;;;;;;;;1.25;1.25;;;;;9.80;94.58;100426.59;4952788;28;9865;-68
2023/12/29 02:54:24;;;;;;;;;8.25;3.00;;;;;9.77;94.63;100435.91;4950313;28;9948;-69
2023/12/29 02:56:50;;;;;;;;;2.75;2.00;;;;;9.83;94.26;100448.53;4952782;28;9950;-68
2023/12/29 02:59:17;;;;;;;;;1.75;1.00;;;;;9.83;93.71;100447.72;4948613;28;9952;-68
2023/12/29 03:01:43;;;;;;;;;2.75;2.00;;;;;9.80;93.22;100440.91;4951156;28;10005;-68
2023/12/29 03:04:10;;;;;;;;;2.50;1.00;;;;;9.88;92.96;100462.25;4950394;28;9871;-68
2023/12/29 03:06:37;;;;;;;;;3.00;3.00;;;;;9.84;92.63;100479.81;4952203;28;9870;-67
2023/12/29 03:09:04;;;;;;;;;2.00;2.00;;;;;9.91;92.21;100467.19;4959643;28;9871;-67
2023/12/29 03:11:31;;;;;;;;;3.00;2.00;;;;;9.87;92.08;100468.63;4950894;28;9942;-71
2023/12/29 03:13:58;;;;;;;;;3.00;2.00;;;;;9.91;91.80;100471.75;4950618;28;9948;-67
2023/12/29 03:16:24;;;;;;;;;5.25;3.00;;;;;9.86;91.64;100471.53;4951066;28;9905;-69
2023/12/29 03:18:51;;;;;;;;;4.00;3.00;;;;;9.79;90.90;100467.97;4951167;28;10806;-68
2023/12/29 03:21:18;;;;;;;;;3.25;1.50;;;;;9.73;90.18;100458.84;4951357;28;10052;-68
2023/12/29 03:23:44;;;;;;;;;6.50;3.00;;;;;9.66;89.61;100461.47;4945588;28;10797;-67
2023/12/29 03:26:11;;;;;;;;;4.00;2.00;;;;;9.70;88.67;100456.53;4951523;28;10026;-67
2023/12/29 03:28:38;;;;;;;;;5.50;3.50;;;;;9.75;87.44;100467.53;4950779;28;9988;-68
2023/12/29 03:31:05;;;;;;;;;5.00;3.50;;;;;9.72;86.69;100475.97;4955846;28;9937;-68
2023/12/29 03:33:32;;;;;;;;;2.00;2.00;;;;;9.71;86.54;100471.63;4946672;28;9811;-67
2023/12/29 03:35:59;;;;;;;;;2.25;2.00;;;;;9.69;85.10;100468.34;4967213;28;9866;-66
2023/12/29 03:38:25;;;;;;;;;3.00;2.00;;;;;9.73;84.42;100463.41;4952149;28;10655;-68
2023/12/29 03:40:52;;;;;;;;;2.25;1.25;;;;;9.79;83.99;100459.91;4951090;28;10000;-68
2023/12/29 03:43:19;;;;;;;;;1.75;1.00;;;;;9.82;82.76;100446.88;4949719;28;9779;-73
2023/12/29 03:45:45;;;;;;;;;4.50;2.25;;;;;9.83;82.59;100453.91;4958911;28;9947;-70
2023/12/29 03:48:12;;;;;;;;;5.75;1.00;;;;;9.83;81.74;100459.28;4952181;28;9884;-68
2023/12/29 03:50:38;;;;;;;;;7.00;3.50;;;;;9.80;80.98;100448.09;4935187;28;9793;-67
2023/12/29 03:53:05;;;;;;;;;1.00;1.00;;;;;9.78;79.31;100426.00;4949859;28;10175;-67
2023/12/29 03:55:32;;;;;;;;;4.00;2.00;;;;;9.82;79.69;100420.00;4952191;28;10014;-68
2023/12/29 03:58:01;;;;;;;;;2.00;2.00;;;;;9.83;79.24;100402.84;4958807;28;10034;-67
2023/12/29 04:00:28;;;;;;;;;1.25;1.00;;;;;9.79;79.14;100414.19;4960920;28;10164;-68
2023/12/29 04:02:55;;;;;;;;;2.00;1.50;;;;;9.76;78.36;100415.41;4964334;28;9878;-68
2023/12/29 04:05:22;;;;;;;;;2.25;2.00;;;;;9.80;78.29;100434.66;4950489;28;9880;-70
2023/12/29 04:07:48;;;;;;;;;1.50;1.00;;;;;9.87;77.97;100441.75;4951983;28;9884;-67
2023/12/29 04:10:15;;;;;;;;;3.00;2.25;;;;;9.76;78.15;100426.16;4950699;29;9695;-68
2023/12/29 04:12:41;;;;;;;;;2.00;2.00;;;;;9.77;77.86;100438.59;4948691;28;10175;-68
2023/12/29 04:15:09;;;;;;;;;4.50;2.00;;;;;9.84;77.99;100435.94;4934673;29;9935;-69
2023/12/29 04:17:35;;;;;;;;;1.75;1.00;;;;;9.84;77.61;100431.41;4957297;28;10819;-67
2023/12/29 04:20:03;;;;;;;;;12.25;2.50;;;;;9.91;77.63;100436.78;4946338;28;9940;-70
2023/12/29 04:22:29;;;;;;;;;6.25;2.00;;;;;9.84;77.30;100434.09;4949491;28;9866;-68
2023/12/29 04:24:56;;;;;;;;;2.00;2.00;;;;;9.78;77.62;100428.69;4953328;28;10022;-68
2023/12/29 04:27:22;;;;;;;;;2.00;1.00;;;;;9.86;77.37;100431.19;4957708;28;10565;-72
2023/12/29 04:29:49;;;;;;;;;5.00;1.00;;;;;9.87;77.36;100433.69;4961984;28;10057;-66
2023/12/29 04:32:16;;;;;;;;;4.25;2.00;;;;;9.87;77.74;100438.22;4961977;28;10669;-66
2023/12/29 04:34:43;;;;;;;;;5.00;2.25;;;;;9.85;78.46;100427.69;4954725;28;10047;-71
2023/12/29 04:37:11;;;;;;;;;6.75;2.75;;;;;9.86;79.48;100442.78;4969717;28;9898;-67
2023/12/29 04:39:38;;;;;;;;;3.00;1.00;;;;;9.87;80.27;100433.69;4956240;28;9947;-68
2023/12/29 04:42:05;;;;;;;;;7.50;5.00;;;;;9.88;80.95;100426.44;4959838;28;10064;-70
2023/12/29 04:44:31;;;;;;;;;0.75;0.75;;;;;9.95;80.97;100421.94;4953621;28;10793;-67
2023/12/29 04:46:58;;;;;;;;;5.25;5.00;;;;;9.87;82.43;100417.53;4954102;28;9931;-68
2023/12/29 04:49:24;;;;;;;;;4.75;3.25;;;;;9.86;82.63;100412.38;4967603;28;10012;-67
2023/12/29 04:51:52;;;;;;;;;6.25;3.00;;;;;9.88;83.52;100427.28;4960742;28;10018;-69
2023/12/29 04:54:18;;;;;;;;;2.00;1.50;;;;;9.87;83.73;100414.84;4954290;28;9947;-69
2023/12/29 04:56:45;;;;;;;;;6.25;4.00;;;;;9.91;83.84;100421.50;4961598;28;9869;-67
2023/12/29 04:59:11;;;;;;;;;4.75;1.50;;;;;9.95;84.12;100407.66;4953925;28;10060;-70
2023/12/29 05:01:38;;;;;;;;;5.25;2.00;;;;;9.94;84.05;100422.13;4953997;28;9877;-69
2023/12/29 05:04:05;;;;;;;;;3.75;3.00;;;;;9.94;84.40;100409.53;4949804;28;10676;-69
2023/12/29 05:06:31;;;;;;;;;5.75;2.75;;;;;9.92;84.18;100408.88;4953548;28;10744;-69
2023/12/29 05:08:58;;;;;;;;;2.75;2.75;;;;;9.98;83.94;100418.03;4950403;28;10087;-71
2023/12/29 05:11:24;;;;;;;;;3.50;2.00;;;;;9.98;84.02;100423.41;4963587;28;10919;-68
2023/12/29 05:13:51;;;;;;;;;6.75;4.75;;;;;9.97;84.02;100430.63;4952359;28;10041;-68
2023/12/29 05:16:18;;;;;;;;;2.00;2.00;;;;;9.96;83.92;100425.44;4953604;28;10083;-69
2023/12/29 05:18:44;;;;;;;;;8.25;3.00;;;;;10.00;83.83;100426.69;4951827;28;9879;-69
2023/12/29 05:21:15;;;;;;;;;1.50;1.00;;;;;10.00;84.12;100426.69;4950369;28;10009;-69
2023/12/29 05:23:43;;;;;;;;;4.25;4.25;;;;;9.86;84.06;100407.84;4954082;28;9773;-68
2023/12/29 05:26:10;;;;;;;;;0.00;0.00;;;;;9.83;84.18;100421.66;4956912;28;10028;-68
2023/12/29 05:28:36;;;;;;;;;5.25;3.50;;;;;9.86;83.86;100421.28;4955334;28;10545;-68
2023/12/29 05:31:04;;;;;;;;;2.75;2.50;;;;;9.81;83.68;100422.91;4953476;28;10126;-69
2023/12/29 05:33:31;;;;;;;;;8.00;4.00;;;;;9.80;84.03;100427.47;4954000;28;10068;-69
2023/12/29 05:35:59;;;;;;;;;7.50;4.50;;;;;9.88;83.36;100429.97;4953222;28;10138;-69
2023/12/29 05:38:25;;;;;;;;;7.50;5.75;;;;;9.85;83.74;100414.25;4948671;28;10165;-69
2023/12/29 05:40:52;;;;;;;;;5.50;3.00;;;;;9.80;83.49;100408.66;4970239;28;9873;-68
2023/12/29 05:43:19;;;;;;;;;4.50;2.50;;;;;9.92;83.93;100414.25;4957992;28;9904;-66
2023/12/29 05:45:46;;;;;;;;;5.00;3.00;;;;;9.85;83.94;100408.03;4976285;28;9861;-66
2023/12/29 05:48:13;;;;;;;;;7.50;2.00;;;;;9.91;83.90;100418.81;4972748;28;10179;-66
2023/12/29 05:50:40;;;;;;;;;2.50;1.75;;;;;9.94;84.20;100414.06;4971902;28;9967;-70
2023/12/29 05:53:08;;;;;;;;;4.00;2.00;;;;;9.89;84.53;100414.69;4966954;28;10072;-69
2023/12/29 05:55:34;;;;;;;;;5.00;2.50;;;;;9.84;84.60;100419.81;4972147;28;10120;-67
2023/12/29 05:58:01;;;;;;;;;3.75;3.50;;;;;9.87;84.62;100401.41;4977438;28;10148;-67
2023/12/29 06:00:28;;;;;;;;;2.50;2.50;;;;;9.94;84.87;100384.50;4978624;28;10119;-67
2023/12/29 06:02:55;;;;;;;;;7.00;5.00;;;;;9.89;84.85;100393.16;4989956;28;9996;-68
2023/12/29 06:05:21;;;;;;;;;4.00;3.00;;;;;9.94;84.84;100390.69;4973269;28;9995;-68
2023/12/29 06:07:48;;;;;;;;;5.00;3.25;;;;;9.90;85.22;100382.19;4981415;28;9957;-66
2023/12/29 06:10:15;;;;;;;;;6.25;2.75;;;;;9.98;85.38;100388.44;4984984;28;10066;-69
2023/12/29 06:12:42;;;;;;;;;6.00;3.00;;;;;9.89;85.86;100375.19;4983621;28;9860;-66
2023/12/29 06:15:09;;;;;;;;;6.75;3.00;;;;;9.87;85.99;100379.09;4973788;28;10079;-65
2023/12/29 06:17:36;;;;;;;;;7.50;2.75;;;;;9.81;86.25;100364.59;4973017;28;9958;-67
2023/12/29 06:20:06;;;;;;;;;7.75;3.50;;;;;9.97;86.46;100370.66;4985083;28;10018;-69
2023/12/29 06:22:33;;;;;;;;;7.25;4.50;;;;;9.89;86.64;100377.88;4977014;28;10128;-66
2023/12/29 06:25:00;;;;;;;;;4.50;4.50;;;;;9.91;86.68;100356.97;4977450;28;10108;-66
2023/12/29 06:27:27;;;;;;;;;6.50;3.00;;;;;9.88;87.04;100364.59;4977604;28;9955;-66
2023/12/29 06:29:54;;;;;;;;;6.50;1.25;;;;;9.89;86.77;100369.81;4978362;28;10008;-66
2023/12/29 06:32:21;;;;;;;;;5.50;2.50;;;;;9.90;86.60;100374.13;4975350;28;10034;-66
2023/12/29 06:34:48;;;;;;;;;2.00;2.00;;;;;9.89;86.52;100380.56;4970030;28;9984;-66
2023/12/29 06:37:14;;;;;;;;;3.00;3.00;;;;;9.89;86.67;100377.88;4974547;28;10088;-67
2023/12/29 06:39:41;;;;;;;;;6.00;2.00;;;;;9.82;86.85;100392.31;4976979;28;10190;-66
2023/12/29 06:42:08;;;;;;;;;8.25;2.50;;;;;9.81;86.89;100399.53;4977264;28;10116;-67
2023/12/29 06:44:35;;;;;;;;;6.75;3.75;;;;;9.73;87.07;100398.88;4973049;28;9879;-67
2023/12/29 06:47:04;;;;;;;;;5.25;2.00;;;;;9.90;86.50;100416.31;4973296;28;10153;-66
2023/12/29 06:49:31;;;;;;;;;5.00;2.75;;;;;9.91;86.77;100418.81;4981435;28;9909;-66
2023/12/29 06:51:58;;;;;;;;;7.00;3.25;;;;;10.03;86.38;100426.31;4973212;28;10050;-67
2023/12/29 06:54:25;;;;;;;;;5.00;3.75;;;;;10.10;86.19;100428.00;4973689;28;10150;-66
2023/12/29 06:56:51;;;;;;;;;6.00;1.00;;;;;10.07;85.63;100428.38;4974198;28;9986;-66
2023/12/29 06:59:19;;;;;;;;;2.50;1.00;;;;;10.03;86.24;100427.13;4983078;28;9947;-69
2023/12/29 07:01:46;;;;;;;;;7.00;3.50;;;;;10.03;86.40;100426.31;4988077;28;9971;-66
2023/12/29 07:04:14;;;;;;;;;3.00;2.50;;;;;9.98;87.14;100426.91;4974990;28;10161;-65
2023/12/29 07:06:41;;;;;;;;;2.75;2.75;;;;;9.99;87.46;100403.53;4974554;28;10252;-69
2023/12/29 07:09:09;;;;;;;;;1.25;1.00;;;;;10.06;87.14;100412.47;4975200;28;10111;-69
2023/12/29 07:11:36;;;;;;;;;2.00;1.00;;;;;10.06;86.93;100423.22;4974317;28;10174;-66
2023/12/29 07:14:03;;;;;;;;;5.00;2.25;;;;;10.10;87.02;100419.09;4976631;28;10026;-65
2023/12/29 07:16:30;;;;;;;;;2.75;2.00;;;;;10.13;86.77;100424.09;4973663;28;9956;-66
2023/12/29 07:18:56;;;;;;;;;2.50;1.25;;;;;10.06;86.93;100415.97;4977440;28;10029;-65
2023/12/29 07:21:23;;;;;;;;;2.50;2.50;;;;;10.10;87.04;100419.94;4972850;28;10143;-66
2023/12/29 07:23:50;;;;;;;;;2.50;2.00;;;;;10.07;87.68;100424.88;4972086;28;9960;-66
2023/12/29 07:26:16;;;;;;;;;4.00;2.75;;;;;10.10;87.75;100411.03;4974112;28;9967;-67
2023/12/29 07:28:43;;;;;;;;;3.00;2.25;;;;;10.08;87.68;100418.44;4985938;28;9978;-67
2023/12/29 07:31:10;;;;;;;;;4.50;2.50;;;;;10.08;88.16;100419.28;4985681;28;9868;-65
2023/12/29 07:33:36;;;;;;;;;6.75;2.75;;;;;9.99;88.50;100417.81;4972376;28;10028;-68
2023/12/29 07:36:04;;;;;;;;;3.00;2.00;;;;;10.05;88.59;100435.00;4984193;28;10010;-66
2023/12/29 07:38:30;;;;;;;;;3.00;3.00;;;;;10.02;89.28;100430.03;4974392;28;9981;-65
2023/12/29 07:40:57;;;;;;;;;4.50;2.00;;;;;9.96;89.52;100426.25;4978057;28;9882;-66
2023/12/29 07:43:24;;;;;;;;;3.25;2.25;;;;;10.05;89.51;100426.94;4966882;28;9871;-66
2023/12/29 07:45:51;;;;;;;;;1.50;1.50;;;;;10.05;89.55;100433.16;4969403;28;9805;-66
2023/12/29 07:48:17;;;;;;;;;2.50;1.75;;;;;9.99;89.71;100425.88;4975746;28;10046;-66
2023/12/29 07:50:45;;;;;;;;;7.25;4.50;;;;;9.98;89.96;100431.47;4971129;28;9775;-71
2023/12/29 07:53:11;;;;;;;;;3.50;2.00;;;;;10.01;90.18;100429.22;4965871;28;10049;-71
2023/12/29 07:55:39;;;;;;;;;2.00;1.00;;;;;10.12;90.02;100433.97;4955822;28;10645;-72
2023/12/29 07:58:06;;;;;;;;;2.50;2.00;;;;;10.13;90.02;100422.22;4967700;28;9850;-72
2023/12/29 08:00:33;;;;;;;;;1.75;0.00;;;;;10.15;90.11;100430.91;4970165;28;10004;-72
2023/12/29 08:03:00;;;;;;;;;3.00;2.00;;;;;10.13;90.25;100440.22;4970960;28;9894;-68
2023/12/29 08:05:26;;;;;;;;;2.00;1.75;;;;;10.16;89.90;100431.72;4963038;28;9961;-71
2023/12/29 08:07:53;;;;;;;;;2.50;1.00;;;;;10.16;90.49;100429.03;4963878;28;10083;-71
2023/12/29 08:10:20;;;;;;;;;3.00;1.75;;;;;10.19;90.53;100425.13;4955659;28;9977;-70
2023/12/29 08:12:47;;;;;;;;;3.00;1.75;;;;;10.15;90.36;100422.84;4966543;28;9860;-69
2023/12/29 08:15:13;;;;;;;;;5.00;2.75;;;;;10.16;91.17;100437.94;4957177;28;10130;-70
2023/12/29 08:17:40;;;;;;;;;2.50;1.00;;;;;10.19;91.08;100431.34;4964176;28;9986;-69
2023/12/29 08:20:07;;;;;;;;;5.25;2.00;;;;;10.14;91.48;100440.00;4957526;28;9855;-69
2023/12/29 08:22:34;;;;;;;;;2.00;2.00;;;;;10.11;92.13;100440.41;4953382;28;9800;-70
2023/12/29 08:25:00;;;;;;;;;2.50;2.00;;;;;10.04;92.22;100441.41;4953857;28;9859;-70
2023/12/29 08:27:27;;;;;;;;;1.00;1.00;;;;;10.13;93.11;100443.72;4959414;28;9962;-71
2023/12/29 08:29:54;;;;;;;;;1.50;0.25;;;;;10.15;92.44;100452.41;4960083;28;10043;-70
2023/12/29 08:32:21;;;;;;;;;2.25;2.00;;;;;10.27;92.67;100441.94;4953391;28;9945;-70
2023/12/29 08:34:48;;;;;;;;;2.75;0.75;;;;;10.24;92.36;100449.56;4952416;28;10042;-68
2023/12/29 08:37:19;;;;;;;;;1.00;1.00;;;;;10.13;92.69;100443.72;4955341;28;10016;-71
2023/12/29 08:39:47;;;;;;;;;2.75;2.75;;;;;10.06;92.98;100447.44;4935832;29;10037;-69
2023/12/29 08:42:14;;;;;;;;;2.00;2.00;;;;;10.07;93.48;100439.16;4958710;28;10192;-70
2023/12/29 08:44:41;;;;;;;;;3.00;1.00;;;;;10.09;93.40;100439.78;4953108;28;10099;-70
2023/12/29 08:47:08;;;;;;;;;2.25;2.00;;;;;10.16;93.16;100442.47;4978603;28;10049;-71
2023/12/29 08:49:38;;;;;;;;;0.25;0.25;;;;;10.20;92.70;100434.84;4957537;28;9921;-70
2023/12/29 08:52:05;;;;;;;;;2.75;2.75;;;;;10.16;92.64;100434.41;4953755;28;9868;-66
2023/12/29 08:54:32;;;;;;;;;1.75;1.50;;;;;10.17;92.54;100436.09;4952268;28;10040;-67
2023/12/29 08:56:59;;;;;;;;;2.75;1.25;;;;;10.15;93.10;100438.16;4951325;28;9773;-66
2023/12/29 08:59:25;;;;;;;;;2.00;2.00;;;;;10.15;93.04;100436.28;4963112;28;9967;-67
2023/12/29 09:01:52;;;;;;;;;1.25;1.25;;;;;10.18;92.90;100437.75;4953965;28;9843;-64
2023/12/29 09:04:19;;;;;;;;;2.00;2.00;;;;;10.16;92.82;100442.47;4969226;28;9783;-65
2023/12/29 09:06:45;;;;;;;;;2.50;2.00;;;;;10.14;92.75;100433.81;4952809;28;9935;-66
2023/12/29 09:09:12;;;;;;;;;2.00;1.00;;;;;10.13;93.04;100432.16;4956544;28;9622;-66
2023/12/29 09:11:40;;;;;;;;;2.75;1.00;;;;;10.14;93.03;100433.81;4967434;28;9755;-66
2023/12/29 09:14:06;;;;;;;;;1.50;1.00;;;;;10.04;92.90;100426.09;4955799;28;9781;-66
2023/12/29 09:16:35;;;;;;;;;2.75;2.00;;;;;10.04;92.61;100438.72;4955736;28;9986;-66
2023/12/29 09:19:02;;;;;;;;;1.50;1.50;;;;;10.03;92.33;100445.94;4977885;28;9947;-66
2023/12/29 09:21:39;;;;;;;;;1.75;1.50;;;;;10.07;92.67;100435.63;4949821;28;9935;-66
2023/12/29 09:24:05;;;;;;;;;1.00;1.00;;;;;10.04;92.60;100442.22;4948496;28;9769;-69
2023/12/29 09:26:32;;;;;;;;;1.00;0.00;;;;;10.06;93.25;100447.44;4970592;28;9832;-66
2023/12/29 09:28:59;;;;;;;;;1.75;1.75;;;;;10.10;93.81;100454.06;4952381;28;9614;-66
2023/12/29 09:31:25;;;;;;;;;2.50;2.50;;;;;10.06;94.04;100455.50;4959463;28;9885;-67
2023/12/29 09:33:52;;;;;;;;;2.00;0.25;;;;;10.11;94.18;100461.91;4968977;28;9929;-65
2023/12/29 09:36:18;;;;;;;;;0.00;0.00;;;;;10.08;94.39;100465.00;4951767;28;9692;-67
2023/12/29 09:38:46;;;;;;;;;5.25;2.50;;;;;10.12;94.53;100463.56;4951650;28;9739;-69
2023/12/29 09:41:15;;;;;;;;;0.00;0.00;;;;;10.35;96.43;100463.28;4943665;28;10450;-68
2023/12/29 09:43:44;;;;;;;;;2.00;1.00;;;;;10.59;96.38;100459.22;4945381;28;9748;-65
2023/12/29 09:46:13;;;;;;;;;2.00;0.50;;;;;10.80;95.84;100460.06;4946960;28;9675;-67
2023/12/29 09:48:45;;;;;;;;;6.00;2.00;;;;;10.87;93.91;100461.75;4949646;28;9674;-70
2023/12/29 09:51:12;;;;;;;;;1.00;1.00;;;;;10.72;92.23;100481.81;4953776;28;9521;-66
2023/12/29 09:53:39;;;;;;;;;2.25;1.50;;;;;10.39;92.07;100491.44;4953640;28;9596;-69
2023/12/29 09:56:08;;;;;;;;;2.00;1.00;;;;;10.19;93.22;100492.38;4954014;28;9469;-70
2023/12/29 09:58:37;;;;;;;;;1.00;1.00;;;;;10.15;94.20;100497.31;4953625;28;9606;-67
2023/12/29 10:01:05;;;;;;;;;2.00;1.00;;;;;10.13;94.29;100496.69;4953780;28;9475;-69
2023/12/29 10:03:32;;;;;;;;;1.25;1.00;;;;;10.19;94.98;100493.19;4953488;28;9685;-69
2023/12/29 10:06:03;;;;;;;;;5.75;2.00;;;;;10.25;95.16;100499.66;4953731;28;9659;-69
2023/12/29 10:08:34;;;;;;;;;2.75;1.00;;;;;10.19;95.05;100498.56;4953507;28;9537;-71
2023/12/29 10:11:03;;;;;;;;;2.00;2.00;;;;;10.21;95.05;100519.88;4953623;28;9684;-69
2023/12/29 10:13:33;;;;;;;;;3.00;1.25;;;;;10.13;95.89;100518.22;4953036;28;9858;-69
2023/12/29 10:16:09;;;;;;;;;2.50;1.00;;;;;10.07;95.86;100508.25;4953521;28;9854;-70
2023/12/29 10:18:41;;;;;;;;;6.50;3.75;;;;;10.07;96.11;100509.06;4953213;28;9553;-68
2023/12/29 10:21:26;;;;;;;;;0.75;0.00;;;;;10.03;96.20;100523.94;4953055;28;9763;-68
2023/12/29 10:24:16;;;;;;;;;3.00;2.75;;;;;10.07;95.75;100513.63;4933938;29;9816;-69
2023/12/29 10:26:43;;;;;;;;;3.50;1.50;;;;;10.03;95.35;100523.94;4934238;29;10006;-69
2023/12/29 10:29:12;;;;;;;;;4.25;1.25;;;;;10.15;95.54;100524.22;4935334;28;9871;-68
2023/12/29 10:31:40;;;;;;;;;2.00;2.00;;;;;10.28;94.70;100523.47;4952901;28;9864;-69
2023/12/29 10:34:19;;;;;;;;;4.00;0.75;;;;;10.26;94.18;100530.94;4953244;28;9876;-68
2023/12/29 10:36:47;;;;;;;;;1.25;0.50;;;;;10.20;94.39;100527.13;4951997;28;9703;-68
2023/12/29 10:39:15;;;;;;;;;1.75;1.25;;;;;10.26;93.92;100517.47;4951875;28;9761;-68
2023/12/29 10:41:41;;;;;;;;;5.00;1.00;;;;;10.27;93.55;100517.25;4951231;28;9783;-69
2023/12/29 10:44:08;;;;;;;;;4.00;4.00;;;;;10.20;93.98;100527.13;4951885;28;10588;-68
2023/12/29 10:46:35;;;;;;;;;2.00;1.00;;;;;10.22;94.26;100530.47;4952829;28;9943;-69
2023/12/29 10:49:09;;;;;;;;;6.00;2.50;;;;;10.16;93.96;100536.63;4969744;28;11096;-69
2023/12/29 10:51:37;;;;;;;;;3.75;3.00;;;;;10.18;93.43;100526.50;4969173;28;9883;-69
2023/12/29 10:54:04;;;;;;;;;2.00;2.00;;;;;10.22;92.56;100538.53;4951823;28;9888;-69
2023/12/29 10:56:31;;;;;;;;;2.00;1.25;;;;;10.20;91.93;100542.44;4952661;28;9870;-69
2023/12/29 10:59:03;;;;;;;;;1.25;1.00;;;;;10.24;91.31;100536.44;4951443;28;9941;-69
2023/12/29 11:01:32;;;;;;;;;5.75;1.00;;;;;10.28;90.80;100542.31;4952493;28;9754;-68
2023/12/29 11:04:05;;;;;;;;;2.00;2.00;;;;;10.38;90.42;100535.53;4932288;29;9922;-69
2023/12/29 11:06:41;;;;;;;;;1.00;1.00;;;;;10.33;89.72;100529.94;4916589;29;9740;-70
2023/12/29 11:09:09;;;;;;;;;3.25;2.50;;;;;10.34;89.61;100530.75;4949710;28;9879;-70
2023/12/29 11:11:37;;;;;;;;;3.75;2.75;;;;;10.35;89.47;100535.09;4951991;28;9727;-70
2023/12/29 11:14:04;;;;;;;;;3.00;3.00;;;;;10.39;89.16;100547.94;4952488;28;9782;-70
2023/12/29 11:16:34;;;;;;;;;2.25;2.25;;;;;10.42;88.80;100537.84;4952380;28;9704;-70
2023/12/29 11:19:03;;;;;;;;;3.50;2.00;;;;;10.46;88.93;100549.84;4951100;28;9834;-70
2023/12/29 11:21:31;;;;;;;;;3.50;2.75;;;;;10.37;88.19;100552.72;4952147;28;9854;-70
2023/12/29 11:23:58;;;;;;;;;0.75;0.75;;;;;10.49;87.71;100544.03;4951799;28;9893;-70
2023/12/29 11:26:26;;;;;;;;;1.25;1.25;;;;;10.42;87.42;100553.97;4952406;28;9725;-70
2023/12/29 11:28:54;;;;;;;;;1.25;0.00;;;;;10.35;87.07;100560.13;4952296;28;9706;-70
2023/12/29 11:31:21;;;;;;;;;4.75;3.50;;;;;10.37;87.04;100563.47;4952096;28;9695;-70
2023/12/29 11:34:03;;;;;;;;;2.50;1.00;;;;;10.40;86.49;100570.31;4951841;28;9712;-69
2023/12/29 11:36:35;;;;;;;;;2.00;2.00;;;;;10.35;86.05;100570.06;4950996;28;9692;-70